createdAt,value
2023-02-14T00:01:36.702Z,21.63
2023-02-14T00:04:09.665Z,22.27
2023-02-14T00:09:17.009Z,23.42
2023-02-14T00:11:49.866Z,22.60
2023-02-14T00:14:41.800Z,22.02
2023-02-14T00:17:14.532Z,25.02
2023-02-14T00:19:47.303Z,18.98
2023-02-14T00:22:20.109Z,23.33
2023-02-14T00:24:52.851Z,23.33
2023-02-14T00:27:25.692Z,22.52
2023-02-14T00:32:38.036Z,25.38
2023-02-14T00:35:11.856Z,22.40
2023-02-14T00:37:47.196Z,23.92
2023-02-14T00:40:19.941Z,21.92
2023-02-14T00:42:52.633Z,24.10
2023-02-14T00:45:30.090Z,21.77
2023-02-14T00:48:02.893Z,21.00
2023-02-14T00:53:08.515Z,22.05
2023-02-14T00:55:41.828Z,24.08
2023-02-14T00:58:14.901Z,22.52
2023-02-14T01:03:21.867Z,22.65
2023-02-14T01:05:54.932Z,25.15
2023-02-14T01:08:29.232Z,24.48
2023-02-14T01:11:08.828Z,21.60
2023-02-14T01:13:42.655Z,21.52
2023-02-14T01:16:19.174Z,21.17
2023-02-14T01:18:53.912Z,22.45
2023-02-14T01:21:28.812Z,23.23
2023-02-14T01:24:03.489Z,24.42
2023-02-14T01:26:36.824Z,22.23
2023-02-14T01:29:09.596Z,22.60
2023-02-14T01:31:44.948Z,23.77
2023-02-14T01:34:17.758Z,24.65
2023-02-14T01:36:52.986Z,21.52
2023-02-14T01:41:58.565Z,27.20
2023-02-14T01:45:00.761Z,21.60
2023-02-14T01:47:39.730Z,23.10
2023-02-14T01:50:18.268Z,20.98
2023-02-14T01:52:55.125Z,25.77
2023-02-14T01:55:33.335Z,24.13
2023-02-14T01:58:10.571Z,23.52
2023-02-14T02:01:02.087Z,24.40
2023-02-14T02:03:42.512Z,23.48
2023-02-14T02:06:18.720Z,27.75
2023-02-14T02:09:01.996Z,26.10
2023-02-14T02:11:36.408Z,23.65
2023-02-14T02:14:14.822Z,20.88
2023-02-14T02:17:09.630Z,23.08
2023-02-14T02:20:21.852Z,24.70
2023-02-14T02:23:29.964Z,21.45
2023-02-14T02:26:44.884Z,24.25
2023-02-14T02:29:50.893Z,23.30
2023-02-14T02:32:45.045Z,22.55
2023-02-14T02:35:32.293Z,24.25
2023-02-14T02:38:22.412Z,23.30
2023-02-14T02:41:04.737Z,22.77
2023-02-14T02:43:50.514Z,21.55
2023-02-14T02:46:44.590Z,23.55
2023-02-14T02:49:55.256Z,24.40
2023-02-14T02:52:59.135Z,20.25
2023-02-14T02:55:52.243Z,21.52
2023-02-14T02:58:30.894Z,23.40
2023-02-14T03:01:10.400Z,21.17
2023-02-14T03:04:05.742Z,20.65
2023-02-14T03:06:38.683Z,21.83
2023-02-14T03:09:36.186Z,18.02
2023-02-14T03:12:24.034Z,20.23
2023-02-14T03:15:03.855Z,20.40
2023-02-14T03:17:44.852Z,20.67
2023-02-14T03:20:23.290Z,22.77
2023-02-14T03:23:05.138Z,17.77
2023-02-14T03:25:47.922Z,18.63
2023-02-14T03:28:32.131Z,21.65
2023-02-14T03:33:50.059Z,19.25
2023-02-14T03:36:27.119Z,19.85
2023-02-14T03:39:07.030Z,22.48
2023-02-14T03:41:48.268Z,18.40
2023-02-14T03:44:28.494Z,20.98
2023-02-14T03:47:05.784Z,21.05
2023-02-14T03:49:44.388Z,20.67
2023-02-14T03:52:19.192Z,21.88
2023-02-14T03:54:55.718Z,21.75
2023-02-14T03:57:33.352Z,18.67
2023-02-14T04:00:09.593Z,20.98
2023-02-14T04:02:49.344Z,18.80
2023-02-14T04:05:26.090Z,19.98
2023-02-14T04:08:01.102Z,19.40
2023-02-14T04:10:34.185Z,19.27
2023-02-14T04:13:07.125Z,19.83
2023-02-14T04:15:43.270Z,21.85
2023-02-14T04:18:36.247Z,20.17
2023-02-14T04:21:09.084Z,21.10
2023-02-14T04:23:42.030Z,19.48
2023-02-14T04:28:47.722Z,16.10
2023-02-14T04:33:54.991Z,20.05
2023-02-14T04:36:28.064Z,21.70
2023-02-14T04:39:01.197Z,19.10
2023-02-14T04:41:34.517Z,19.70
2023-02-14T04:44:07.440Z,21.63
2023-02-14T04:49:14.661Z,20.70
2023-02-14T04:51:48.301Z,21.27
2023-02-14T04:54:21.353Z,23.10
2023-02-14T04:59:27.404Z,19.20
2023-02-14T05:02:01.725Z,22.30
2023-02-14T05:04:34.615Z,20.63
2023-02-14T05:09:40.405Z,18.55
2023-02-14T05:12:14.185Z,18.70
2023-02-14T05:14:46.922Z,18.38
2023-02-14T05:17:21.232Z,24.23
2023-02-14T05:19:54.016Z,20.88
2023-02-14T05:22:26.859Z,21.80
2023-02-14T05:27:32.318Z,19.83
2023-02-14T05:30:05.764Z,20.98
2023-02-14T05:32:40.010Z,19.98
2023-02-14T05:35:12.931Z,24.15
2023-02-14T05:40:18.670Z,20.63
2023-02-14T05:45:26.821Z,20.98
2023-02-14T05:48:00.993Z,21.42
2023-02-14T05:50:33.964Z,19.95
2023-02-14T05:55:39.521Z,25.58
2023-02-14T06:00:45.511Z,26.15
2023-02-14T06:03:20.051Z,26.10
2023-02-14T06:05:52.906Z,29.67
2023-02-14T06:08:25.757Z,26.75
2023-02-14T06:10:58.852Z,25.90
2023-02-14T06:13:31.849Z,25.08
2023-02-14T06:16:05.291Z,27.15
2023-02-14T06:18:39.533Z,27.17
2023-02-14T06:21:12.362Z,24.13
2023-02-14T06:26:17.874Z,27.98
2023-02-14T06:28:54.142Z,23.42
2023-02-14T06:31:27.409Z,23.58
2023-02-14T06:34:01.881Z,22.75
2023-02-14T06:36:35.112Z,24.15
2023-02-14T06:39:08.147Z,21.92
2023-02-14T06:44:13.726Z,23.75
2023-02-14T06:46:46.486Z,24.42
2023-02-14T06:49:20.727Z,27.42
2023-02-14T06:51:53.493Z,22.38
2023-02-14T06:54:26.299Z,22.17
2023-02-14T06:56:59.565Z,22.83
2023-02-14T06:59:32.315Z,27.45
2023-02-14T07:02:05.031Z,24.00
2023-02-14T07:04:39.248Z,23.13
2023-02-14T07:07:11.966Z,23.65
2023-02-14T07:09:44.845Z,26.88
2023-02-14T07:12:17.634Z,24.45
2023-02-14T07:14:50.387Z,23.30
2023-02-14T07:17:23.098Z,28.15
2023-02-14T07:19:57.146Z,25.55
2023-02-14T07:22:30.473Z,26.80
2023-02-14T07:25:03.280Z,28.02
2023-02-14T07:27:36.001Z,30.58
2023-02-14T07:30:11.501Z,28.02
2023-02-14T07:32:44.210Z,30.05
2023-02-14T07:35:18.397Z,35.65
2023-02-14T07:37:51.895Z,28.88
2023-02-14T07:40:25.211Z,25.92
2023-02-14T07:42:59.292Z,30.88
2023-02-14T07:45:32.114Z,28.58
2023-02-14T07:48:05.166Z,29.80
2023-02-14T07:50:39.197Z,31.05
2023-02-14T07:53:12.080Z,29.00
2023-02-14T07:58:17.905Z,22.88
2023-02-14T08:03:23.856Z,29.75
2023-02-14T08:06:01.064Z,33.35
2023-02-14T08:08:33.835Z,38.13
2023-02-14T08:11:06.763Z,42.70
2023-02-14T08:13:39.383Z,36.13
2023-02-14T08:16:12.704Z,34.70
2023-02-14T08:18:45.868Z,33.55
2023-02-14T08:21:19.905Z,34.20
2023-02-14T08:23:52.808Z,40.65
2023-02-14T08:28:58.346Z,36.63
2023-02-14T08:34:09.585Z,46.95
2023-02-14T08:36:44.260Z,50.20
2023-02-14T08:39:16.962Z,47.92
2023-02-14T08:41:49.904Z,47.30
2023-02-14T08:46:55.235Z,50.45
2023-02-14T08:49:28.106Z,45.70
2023-02-14T08:54:34.874Z,52.92
2023-02-14T08:57:07.635Z,52.50
2023-02-14T08:59:40.578Z,47.63
2023-02-14T09:04:46.604Z,55.03
2023-02-14T09:07:21.021Z,55.60
2023-02-14T09:09:54.048Z,55.92
2023-02-14T09:14:59.696Z,65.80
2023-02-14T09:17:32.445Z,57.88
2023-02-14T09:20:06.832Z,63.13
2023-02-14T09:22:41.052Z,64.75
2023-02-14T09:25:13.920Z,70.45
2023-02-14T09:27:46.672Z,76.90
2023-02-14T09:30:19.533Z,91.00
2023-02-14T09:35:25.613Z,108.78
2023-02-14T09:38:01.982Z,121.50
2023-02-14T09:40:35.219Z,118.38
2023-02-14T09:43:18.501Z,130.73
2023-02-14T09:45:56.135Z,123.68
2023-02-14T09:48:35.024Z,117.72
2023-02-14T09:51:13.820Z,137.20
2023-02-14T09:53:52.519Z,134.57
2023-02-14T09:56:42.687Z,138.18
2023-02-14T09:59:28.538Z,142.90
2023-02-14T10:02:21.215Z,134.35
2023-02-14T10:05:02.402Z,136.32
2023-02-14T10:07:45.916Z,142.95
2023-02-14T10:10:26.523Z,144.38
2023-02-14T10:13:06.704Z,119.63
2023-02-14T10:15:42.935Z,143.55
2023-02-14T10:18:21.453Z,136.57
2023-02-14T10:20:58.891Z,126.38
2023-02-14T10:23:36.005Z,146.30
2023-02-14T10:26:14.333Z,141.40
2023-02-14T10:28:49.162Z,146.35
2023-02-14T10:31:23.916Z,142.98
2023-02-14T10:34:05.866Z,145.52
2023-02-14T10:37:14.380Z,136.82
2023-02-14T10:40:06.028Z,150.90
2023-02-14T10:42:57.192Z,154.85
2023-02-14T10:45:40.177Z,161.20
2023-02-14T10:48:21.911Z,150.23
2023-02-14T10:51:00.421Z,144.60
2023-02-14T10:53:45.630Z,145.00
2023-02-14T10:56:23.462Z,149.50
2023-02-14T10:58:58.782Z,132.77
2023-02-14T11:01:31.928Z,149.65
2023-02-14T11:04:08.713Z,157.68
2023-02-14T11:06:41.441Z,152.35
2023-02-14T11:09:14.282Z,165.65
2023-02-14T11:11:51.602Z,138.32
2023-02-14T11:14:30.136Z,162.40
2023-02-14T11:17:28.100Z,135.27
2023-02-14T11:20:03.030Z,134.63
2023-02-14T11:22:36.420Z,142.82
2023-02-14T11:25:20.393Z,132.90
2023-02-14T11:28:03.510Z,138.90
2023-02-14T11:33:23.583Z,147.55
2023-02-14T11:35:57.963Z,134.77
2023-02-14T11:38:34.792Z,134.30
2023-02-14T11:41:10.275Z,132.55
2023-02-14T11:43:45.061Z,118.55
2023-02-14T11:46:29.050Z,109.82
2023-02-14T11:49:04.950Z,122.10
2023-02-14T11:51:43.511Z,129.52
2023-02-14T11:54:30.071Z,127.97
2023-02-14T11:57:07.438Z,120.32
2023-02-14T11:59:43.809Z,135.18
2023-02-14T12:02:32.712Z,149.10
2023-02-14T12:05:15.871Z,135.80
2023-02-14T12:07:51.677Z,126.75
2023-02-14T12:10:27.514Z,133.95
2023-02-14T12:13:02.741Z,134.60
2023-02-14T12:15:38.154Z,132.73
2023-02-14T12:18:46.104Z,127.78
2023-02-14T12:21:39.957Z,128.65
2023-02-14T12:24:21.884Z,119.00
2023-02-14T12:27:03.543Z,129.95
2023-02-14T12:29:40.711Z,114.53
2023-02-14T12:32:21.452Z,106.28
2023-02-14T12:35:01.567Z,122.72
2023-02-14T12:37:50.770Z,125.55
2023-02-14T12:40:37.628Z,105.43
2023-02-14T12:43:31.838Z,116.53
2023-02-14T12:46:22.029Z,111.30
2023-02-14T12:49:11.606Z,127.22
2023-02-14T12:51:51.244Z,102.65
2023-02-14T12:54:41.166Z,139.88
2023-02-14T12:57:27.813Z,133.93
2023-02-14T13:00:12.609Z,122.90
2023-02-14T13:02:59.273Z,145.13
2023-02-14T13:05:46.591Z,126.57
2023-02-14T13:08:31.040Z,117.65
2023-02-14T13:11:13.274Z,133.70
2023-02-14T13:13:57.117Z,141.98
2023-02-14T13:16:38.821Z,129.05
2023-02-14T13:19:24.830Z,114.18
2023-02-14T13:21:59.925Z,125.13
2023-02-14T13:24:40.592Z,130.50
2023-02-14T13:27:22.155Z,124.80
2023-02-14T13:29:59.613Z,123.97
2023-02-14T13:32:39.239Z,123.03
2023-02-14T13:35:17.405Z,121.50
2023-02-14T13:37:55.159Z,130.38
2023-02-14T13:40:30.391Z,132.68
2023-02-14T13:43:07.562Z,133.52
2023-02-14T13:46:04.245Z,151.77
2023-02-14T13:48:39.082Z,143.65
2023-02-14T13:51:12.434Z,117.50
2023-02-14T13:53:46.928Z,132.18
2023-02-14T13:56:35.109Z,143.77
2023-02-14T13:59:27.915Z,130.88
2023-02-14T14:02:32.935Z,133.55
2023-02-14T14:05:47.692Z,142.88
2023-02-14T14:08:47.377Z,141.57
2023-02-14T14:11:53.060Z,141.65
2023-02-14T14:14:39.677Z,152.10
2023-02-14T14:17:26.225Z,141.30
2023-02-14T14:19:59.570Z,146.32
2023-02-14T14:22:32.410Z,139.85
2023-02-14T14:27:45.133Z,119.22
2023-02-14T14:30:23.998Z,126.05
2023-02-14T14:32:56.666Z,141.15
2023-02-14T14:35:29.602Z,140.63
2023-02-14T14:38:02.498Z,141.70
2023-02-14T14:40:38.340Z,145.73
2023-02-14T14:43:14.479Z,142.75
2023-02-14T14:45:52.800Z,150.63
2023-02-14T14:48:30.880Z,139.85
2023-02-14T14:51:06.377Z,145.32
2023-02-14T14:53:45.515Z,121.75
2023-02-14T14:56:22.136Z,132.48
2023-02-14T14:58:55.511Z,130.40
2023-02-14T15:01:36.895Z,121.85
2023-02-14T15:04:12.414Z,126.82
2023-02-14T15:06:45.819Z,112.95
2023-02-14T15:09:23.972Z,133.23
2023-02-14T15:12:17.967Z,131.75
2023-02-14T15:14:54.756Z,127.60
2023-02-14T15:17:33.836Z,127.05
2023-02-14T15:20:10.343Z,128.70
2023-02-14T15:22:45.853Z,131.18
2023-02-14T15:25:22.331Z,126.88
2023-02-14T15:27:55.166Z,114.97
2023-02-14T15:30:33.914Z,115.13
2023-02-14T15:33:09.349Z,112.72
2023-02-14T15:35:43.886Z,108.65
2023-02-14T15:38:17.329Z,103.05
2023-02-14T15:40:51.622Z,103.85
2023-02-14T15:43:30.955Z,99.45
2023-02-14T15:46:17.540Z,94.32
2023-02-14T15:48:53.362Z,98.85
2023-02-14T15:51:29.746Z,95.40
2023-02-14T15:54:05.688Z,95.38
2023-02-14T15:56:44.799Z,102.40
2023-02-14T15:59:20.610Z,94.88
2023-02-14T16:01:56.085Z,95.68
2023-02-14T16:04:33.022Z,88.90
2023-02-14T16:07:17.246Z,97.13
2023-02-14T16:09:51.402Z,89.45
2023-02-14T16:12:31.624Z,90.78
2023-02-14T16:15:18.070Z,89.80
2023-02-14T16:17:50.811Z,86.95
2023-02-14T16:20:30.771Z,95.30
2023-02-14T16:23:23.104Z,98.43
2023-02-14T16:25:58.285Z,89.43
2023-02-14T16:28:31.775Z,100.88
2023-02-14T16:31:10.237Z,91.15
2023-02-14T16:33:43.104Z,104.72
2023-02-14T16:36:23.343Z,94.93
2023-02-14T16:38:57.087Z,92.85
2023-02-14T16:41:31.565Z,100.32
2023-02-14T16:44:04.572Z,101.82
2023-02-14T16:46:37.401Z,105.57
2023-02-14T16:49:10.399Z,102.47
2023-02-14T16:54:20.763Z,111.28
2023-02-14T16:56:56.550Z,100.70
2023-02-14T16:59:29.517Z,108.38
2023-02-14T17:04:35.070Z,114.35
2023-02-14T17:07:09.959Z,113.00
2023-02-14T17:09:49.024Z,115.47
2023-02-14T17:12:30.559Z,123.63
2023-02-14T17:15:09.482Z,119.32
2023-02-14T17:17:43.575Z,122.32
2023-02-14T17:20:20.067Z,119.20
2023-02-14T17:22:55.677Z,123.80
2023-02-14T17:25:31.927Z,130.35
2023-02-14T17:28:05.367Z,139.38
2023-02-14T17:30:38.504Z,134.95
2023-02-14T17:33:11.590Z,134.05
2023-02-14T17:35:44.563Z,138.07
2023-02-14T17:40:53.018Z,139.18
2023-02-14T17:43:28.538Z,148.70
2023-02-14T17:46:05.563Z,148.75
2023-02-14T17:48:38.646Z,141.43
2023-02-14T17:51:11.536Z,140.70
2023-02-14T17:53:45.732Z,132.10
2023-02-14T17:56:21.320Z,140.95
2023-02-14T17:58:55.224Z,131.23
2023-02-14T18:01:31.528Z,124.63
2023-02-14T18:04:05.733Z,133.73
2023-02-14T18:06:38.561Z,141.18
2023-02-14T18:09:12.921Z,136.23
2023-02-14T18:11:46.770Z,124.82
2023-02-14T18:14:19.659Z,122.10
2023-02-14T18:19:25.136Z,129.60
2023-02-14T18:24:35.501Z,117.25
2023-02-14T18:27:08.463Z,127.95
2023-02-14T18:29:41.697Z,126.97
2023-02-14T18:32:14.802Z,128.52
2023-02-14T18:34:47.710Z,118.20
2023-02-14T18:39:54.790Z,120.55
2023-02-14T18:42:27.870Z,121.03
2023-02-14T18:45:00.895Z,121.45
2023-02-14T18:47:33.932Z,123.75
2023-02-14T18:55:14.657Z,122.93
2023-02-14T18:57:47.491Z,117.25
2023-02-14T19:00:21.810Z,119.72
2023-02-14T19:02:54.693Z,123.15
2023-02-14T19:05:28.200Z,120.30
2023-02-14T19:08:01.474Z,125.00
2023-02-14T19:10:38.552Z,118.22
2023-02-14T19:13:11.808Z,118.28
2023-02-14T19:15:44.911Z,131.52
2023-02-14T19:18:18.030Z,131.20
2023-02-14T19:20:51.763Z,123.35
2023-02-14T19:23:24.743Z,126.78
2023-02-14T19:25:59.265Z,122.25
2023-02-14T19:28:36.213Z,119.53
2023-02-14T19:31:10.333Z,126.75
2023-02-14T19:33:45.065Z,126.68
2023-02-14T19:36:20.446Z,124.10
2023-02-14T19:38:54.383Z,116.28
2023-02-14T19:41:31.701Z,119.05
2023-02-14T19:44:07.341Z,115.38
2023-02-14T19:46:42.325Z,114.50
2023-02-14T19:49:17.721Z,122.35
2023-02-14T19:51:52.569Z,118.78
2023-02-14T19:54:25.666Z,116.93
2023-02-14T19:56:59.982Z,114.53
2023-02-14T19:59:32.893Z,110.63
2023-02-14T20:04:38.558Z,118.40
2023-02-14T20:09:44.421Z,108.90
2023-02-14T20:14:54.026Z,116.45
2023-02-14T20:17:26.874Z,120.97
2023-02-14T20:19:59.762Z,119.97
2023-02-14T20:25:06.293Z,120.53
2023-02-14T20:27:40.654Z,130.07
2023-02-14T20:30:14.641Z,119.45
2023-02-14T20:32:47.531Z,116.03
2023-02-14T20:37:54.031Z,126.90
2023-02-14T20:40:26.786Z,126.20
2023-02-14T20:43:01.378Z,137.18
2023-02-14T20:45:34.201Z,124.35
2023-02-14T20:50:41.069Z,137.80
2023-02-14T20:53:14.172Z,132.77
2023-02-14T20:55:50.119Z,126.32
2023-02-14T20:58:24.905Z,124.03
2023-02-14T21:00:58.572Z,127.68
2023-02-14T21:03:32.456Z,128.38
2023-02-14T21:06:07.159Z,124.25
2023-02-14T21:08:40.592Z,124.72
2023-02-14T21:11:15.657Z,112.75
2023-02-14T21:13:51.799Z,122.70
2023-02-14T21:16:25.654Z,119.80
2023-02-14T21:19:00.798Z,115.03
2023-02-14T21:21:36.405Z,117.40
2023-02-14T21:24:11.851Z,115.07
2023-02-14T21:26:45.879Z,107.50
2023-02-14T21:29:20.533Z,114.95
2023-02-14T21:32:04.116Z,108.20
2023-02-14T21:34:37.467Z,106.50
2023-02-14T21:37:11.213Z,102.03
2023-02-14T21:39:45.563Z,102.25
2023-02-14T21:42:21.175Z,102.70
2023-02-14T21:45:12.849Z,99.00
2023-02-14T21:48:06.748Z,98.65
2023-02-14T21:50:39.073Z,101.28
2023-02-14T21:53:12.261Z,96.15
2023-02-14T21:55:46.207Z,94.05
2023-02-14T21:58:19.207Z,95.00
2023-02-14T22:03:26.615Z,96.43
2023-02-14T22:06:05.683Z,89.10
2023-02-14T22:08:38.440Z,92.90
2023-02-14T22:11:13.242Z,91.95
2023-02-14T22:13:48.189Z,93.25
2023-02-14T22:16:24.617Z,87.72
2023-02-14T22:18:57.468Z,86.55
2023-02-14T22:21:33.386Z,83.25
2023-02-14T22:24:06.961Z,83.85
2023-02-14T22:26:40.956Z,77.60
2023-02-14T22:29:14.152Z,82.32
2023-02-14T22:31:50.268Z,83.35
2023-02-14T22:34:23.111Z,83.53
2023-02-14T22:36:55.940Z,79.55
2023-02-14T22:42:05.356Z,82.28
2023-02-14T22:44:38.246Z,81.78
2023-02-14T22:47:12.548Z,76.25
2023-02-14T22:49:45.589Z,75.18
2023-02-14T22:54:53.368Z,69.70
2023-02-14T22:57:26.911Z,73.30
2023-02-14T23:00:00.137Z,78.13
2023-02-14T23:02:34.945Z,77.05
2023-02-14T23:05:08.132Z,76.43
2023-02-14T23:07:41.439Z,74.45
2023-02-14T23:10:14.432Z,66.20
2023-02-14T23:15:54.951Z,70.38
2023-02-14T23:18:46.694Z,71.32
2023-02-14T23:21:37.161Z,68.70
2023-02-14T23:24:09.973Z,76.07
2023-02-14T23:26:42.877Z,75.07
2023-02-14T23:31:48.486Z,69.70
2023-02-14T23:34:25.760Z,68.93
2023-02-14T23:36:58.624Z,68.43
2023-02-14T23:42:06.846Z,67.82
2023-02-14T23:44:39.949Z,64.03
2023-02-14T23:47:14.415Z,63.08
2023-02-14T23:49:48.762Z,68.18
2023-02-14T23:52:21.507Z,63.33
2023-02-14T23:54:54.290Z,60.15
2023-02-14T23:57:27.684Z,66.63
